Latest Coastal Weather Observations for Dunalley

IDT60701

Issued at 4:12 am EDT Thursday 23 February 2017 (issued every 10 minutes, with the page automatically refreshed every 10 minutes)

About coastal observations | Map of coastal stations | Coastal observations for TAS | Marine services | Other Formats
Station Details ID: 094254 Name: DUNALLEY (STROUD POINT) Lat: -42.90 Lon: 147.79 Height: 12.43 m
Data from the previous 72 hours. | See also: Recent months at Dunalley
Date/Time
EDT
Temp
°C
Wind Pressure Rain since
9am
mm
Weather Cloud Vis
km
Sea
Height
m
Swell
Dir  Spd
kts
Gust
kts
hPa Trend Height
m
Period
s
Dir
23/04:00am 17.5 ENE 3 4 1006.7 - 0.0 - - - - - - -
23/03:30am 17.8 ENE 2 5 1006.1 - 0.0 - - - - - - -
23/03:00am 18.1 NE 8 11 1006.1 - 0.0 - - - - - - -
23/02:30am 18.4 E 8 11 1006.8 - 0.0 - - - - - - -
23/02:00am 17.8 ENE 8 10 1007.0 - 0.0 - - - - - - -
23/01:30am 17.9 ENE 8 10 1007.8 - 0.0 - - - - - - -
23/01:00am 17.9 NE 8 11 1008.0 - 0.0 - - - - - - -
23/12:30am 17.6 ENE 8 10 1008.5 - 0.0 - - - - - - -
23/12:00am 17.7 ENE 7 9 1009.0 - 0.0 - - - - - - -
 
Date/Time
EDT
Temp
°C
Wind Pressure Rain since
9am
mm
Weather Cloud Vis
km
Sea
Height
m
Swell
Dir  Spd
kts
Gust
kts
hPa Trend Height
m
Period
s
Dir
22/11:30pm 17.4 NE 8 10 1009.3 - 0.0 - - - - - - -
22/11:00pm 17.6 NE 8 11 1009.7 - 0.0 - - - - - - -
22/10:30pm 17.6 NE 13 19 1010.1 - 0.0 - - - - - - -
22/10:00pm 17.8 NE 12 15 1010.2 - 0.0 - - - - - - -
22/09:30pm 18.0 ENE 10 13 1010.5 - 0.0 - - - - - - -
22/09:00pm 18.4 ENE 10 12 1010.4 - 0.0 - - - - - - -
22/08:30pm 18.8 ENE 11 14 1010.1 - 0.0 - - - - - - -
22/08:00pm 19.5 NE 12 15 1009.9 - 0.0 - - - - - - -
22/07:30pm 19.9 ENE 13 17 1009.7 - 0.0 - - - - - - -
22/07:00pm 20.4 NE 14 17 1009.6 - 0.0 - - - - - - -
22/06:30pm 21.5 NE 18 23 1009.9 - 0.0 - - - - - - -
22/06:00pm 21.9 NE 21 25 1009.6 - 0.0 - - - - - - -
22/05:30pm 21.8 NE 24 29 1009.9 - 0.0 - - - - - - -
22/05:00pm 22.7 NE 20 26 1010.5 - 0.0 - - - - - - -
22/04:30pm 22.0 NE 19 24 1010.9 - 0.0 - - - - - - -
22/04:00pm 23.3 NE 18 22 1011.3 - 0.0 - - - - - - -
22/03:30pm 22.2 NE 20 25 1011.7 - 0.0 - - - - - - -
22/03:00pm 22.0 ENE 18 22 1012.4 - 0.0 - - - - - - -
22/02:30pm 22.0 NE 18 22 1012.7 - 0.0 - - - - - - -
22/02:00pm 23.0 NE 17 20 1012.9 - 0.0 - - - - - - -
22/01:30pm 21.6 ENE 17 20 1013.1 - 0.0 - - - - - - -
22/01:00pm 20.6 NE 19 23 1013.5 - 0.0 - - - - - - -
22/12:30pm 20.6 NE 19 22 1014.0 - 0.0 - - - - - - -
22/12:00pm 21.4 NE 15 19 1014.3 - 0.0 - - - - - - -
22/11:30am 22.1 NE 6 11 1015.1 - 0.0 - - - - - - -
22/11:00am 20.9 NNE 6 10 1015.8 - 0.0 - - - - - - -
22/10:30am 19.2 NNE 8 12 1015.8 - 0.0 - - - - - - -
22/10:00am 18.0 NE 8 11 1016.3 - 0.0 - - - - - - -
22/09:30am 17.8 NNE 7 10 1016.5 - 0.0 - - - - - - -
22/09:00am 16.4 NNE 8 11 1016.7 - 0.0 - - - - - - -
22/08:30am 15.7 NNE 9 13 1016.6 - 0.0 - - - - - - -
22/08:00am 16.4 NNE 7 9 1016.4 - 0.0 - - - - - - -
22/07:30am 15.6 N 8 11 1016.5 - 0.0 - - - - - - -
22/07:00am 14.9 NNE 7 10 1016.5 - 0.0 - - - - - - -
22/06:30am 15.0 NNE 11 15 1016.3 - 0.0 - - - - - - -
22/06:00am 15.1 NNE 15 20 1016.3 - 0.0 - - - - - - -
22/05:30am 14.8 NE 12 17 1016.4 - 0.0 - - - - - - -
22/05:00am 14.9 NE 14 17 1016.5 - 0.0 - - - - - - -
22/04:30am 14.9 NNE 12 16 1017.0 - 0.0 - - - - - - -
22/04:00am 14.8 NNE 11 13 1017.4 - 0.0 - - - - - - -
22/03:30am 14.8 NNE 11 13 1017.6 - 0.0 - - - - - - -
22/03:00am 14.8 NNE 13 17 1017.9 - 0.0 - - - - - - -
22/02:30am 14.6 NNE 12 16 1017.9 - 0.0 - - - - - - -
22/02:00am 14.6 NNE 12 15 1018.3 - 0.0 - - - - - - -
22/01:30am 14.6 NE 11 13 1018.4 - 0.0 - - - - - - -
22/01:00am 14.8 NE 10 15 1019.1 - 0.0 - - - - - - -
22/12:30am 14.0 ENE 7 9 1019.3 - 0.0 - - - - - - -
22/12:00am 13.7 ENE 5 7 1019.6 - 0.0 - - - - - - -
 
Date/Time
EDT
Temp
°C
Wind Pressure Rain since
9am
mm
Weather Cloud Vis
km
Sea
Height
m
Swell
Dir  Spd
kts
Gust
kts
hPa Trend Height
m
Period
s
Dir
21/11:30pm 14.0 NE 4 6 1019.8 - 0.0 - - - - - - -
21/11:00pm 14.4 NE 6 9 1019.8 - 0.0 - - - - - - -
21/10:30pm 14.6 ENE 6 8 1020.0 - 0.0 - - - - - - -
21/10:00pm 14.8 NE 9 11 1020.2 - 0.0 - - - - - - -
21/09:30pm 15.1 ENE 6 8 1019.9 - 0.0 - - - - - - -
21/09:00pm 15.4 E 5 7 1019.9 - 0.0 - - - - - - -
21/08:30pm 15.3 ENE 5 8 1019.5 - 0.0 - - - - - - -
21/08:00pm 15.6 ENE 5 8 1019.3 - 0.0 - - - - - - -
21/07:30pm 15.9 NE 7 9 1018.9 - 0.0 - - - - - - -
21/07:00pm 16.6 E 5 10 1018.3 - 0.0 - - - - - - -
21/06:30pm 16.9 S 8 9 1018.2 - 0.0 - - - - - - -
21/06:00pm 17.9 SSE 8 10 1017.9 - 0.0 - - - - - - -
21/05:30pm 18.4 S 13 15 1017.2 - 0.0 - - - - - - -
21/05:00pm 19.0 S 12 14 1017.2 - 0.0 - - - - - - -
21/04:30pm 19.8 SW 7 12 1016.9 - 0.0 - - - - - - -
21/04:00pm 19.4 WSW 5 7 1016.9 - 0.0 - - - - - - -
21/03:30pm 19.4 WSW 5 7 1017.0 - 0.0 - - - - - - -
21/03:00pm 19.2 W 6 9 1017.1 - 0.0 - - - - - - -
21/02:30pm 19.5 WSW 9 10 1017.3 - 0.0 - - - - - - -
21/02:00pm 18.6 WSW 8 11 1017.5 - 0.0 - - - - - - -
21/01:30pm 17.8 WSW 6 8 1017.6 - 0.0 - - - - - - -
21/01:00pm 17.4 WSW 7 10 1017.7 - 0.0 - - - - - - -
21/12:30pm 17.4 SW 11 14 1017.8 - 0.0 - - - - - - -
21/12:00pm 17.1 SW 12 16 1017.8 - 0.0 - - - - - - -
21/11:30am 16.9 WSW 14 19 1017.9 - 0.0 - - - - - - -
21/11:00am 15.9 WSW 13 17 1017.9 - 0.0 - - - - - - -
21/10:30am 16.1 WSW 14 17 1017.5 - 0.0 - - - - - - -
21/10:00am 15.2 WSW 19 23 1017.6 - 0.0 - - - - - - -
21/09:30am 14.8 W 16 20 1017.2 - 0.0 - - - - - - -
21/09:00am 15.0 WSW 17 22 1017.1 - 3.4 - - - - - - -
21/08:30am 14.4 WSW 17 21 1016.9 - 3.4 - - - - - - -
21/08:00am 13.9 W 14 18 1016.3 - 3.4 - - - - - - -
21/07:30am 13.8 W 15 21 1015.8 - 3.4 - - - - - - -
21/07:00am 13.8 WSW 19 22 1015.3 - 3.4 - - - - - - -
21/06:30am 13.6 WSW 21 25 1014.8 - 3.4 - - - - - - -
21/06:00am 13.5 WSW 21 26 1014.1 - 3.4 - - - - - - -
21/05:30am 13.4 WSW 21 25 1014.0 - 3.4 - - - - - - -
21/05:00am 13.4 W 19 23 1013.7 - 3.4 - - - - - - -
21/04:30am 13.3 WSW 18 22 1013.4 - 3.4 - - - - - - -
21/04:00am 13.7 WSW 19 22 1013.2 - 3.4 - - - - - - -
21/03:30am 13.6 W 18 20 1013.2 - 3.4 - - - - - - -
21/03:00am 13.9 WSW 21 24 1013.0 - 3.4 - - - - - - -
21/02:30am 13.8 WSW 21 26 1012.7 - 3.4 - - - - - - -
21/02:00am 13.8 WSW 22 27 1012.6 - 3.4 - - - - - - -
21/01:30am 13.6 WSW 21 26 1012.5 - 3.4 - - - - - - -
21/01:00am 13.8 WSW 23 29 1012.5 - 3.4 - - - - - - -
21/12:30am 13.9 WSW 23 28 1012.3 - 3.4 - - - - - - -
21/12:00am 14.0 SW 23 29 1012.1 - 3.4 - - - - - - -
 
Date/Time
EDT
Temp
°C
Wind Pressure Rain since
9am
mm
Weather Cloud Vis
km
Sea
Height
m
Swell
Dir  Spd
kts
Gust
kts
hPa Trend Height
m
Period
s
Dir
20/11:30pm 13.5 WSW 22 25 1012.2 - 3.4 - - - - - - -
20/11:00pm 13.6 SW 22 27 1012.1 - 3.4 - - - - - - -
20/10:30pm 14.3 SW 20 25 1011.9 - 3.4 - - - - - - -
20/10:00pm 14.3 SW 20 26 1011.9 - 3.4 - - - - - - -
20/09:30pm 14.2 SW 19 23 1011.5 - 3.4 - - - - - - -
20/09:00pm 14.3 SW 20 25 1011.0 - 3.4 - - - - - - -
20/08:30pm 14.7 SW 19 25 1010.5 - 3.4 - - - - - - -
20/08:00pm 14.6 SSW 20 23 1010.1 - 3.4 - - - - - - -
20/07:30pm 14.9 SSW 21 27 1009.7 - 3.4 - - - - - - -
20/07:00pm 15.0 SSW 18 23 1009.2 - 3.4 - - - - - - -
20/06:30pm 15.1 SSW 18 25 1008.8 - 3.4 - - - - - - -
20/06:00pm 15.2 SSW 18 21 1008.5 - 3.4 - - - - - - -
20/05:30pm 15.8 SSW 18 22 1008.1 - 3.4 - - - - - - -
20/05:00pm 15.4 SSW 17 22 1007.8 - 3.4 - - - - - - -
20/04:30pm 15.5 S 15 17 1007.6 - 3.4 - - - - - - -
20/04:00pm 15.5 W 14 16 1007.3 - 3.4 - - - - - - -
20/03:30pm 14.1 WSW 16 18 1007.4 - 3.4 - - - - - - -
20/03:00pm 13.0 SSW 10 13 1007.7 - 3.2 Rain - - - - - -
20/02:30pm 14.3 SSW 12 16 1007.6 - 1.8 - - - - - - -
20/02:00pm 14.7 WSW 14 17 1007.3 - 1.6 - - - - - - -
20/01:30pm 14.0 SW 14 17 1007.4 - 1.4 - - - - - - -
20/01:00pm 15.2 SW 18 26 1007.2 - 0.0 - - - - - - -
20/12:59pm 15.2 SW 17 26 1007.2 - 0.0 - - - - - - -
20/12:30pm 16.7 SW 13 16 1007.2 - 0.0 - - - - - - -
20/12:00pm 16.8 SW 10 13 1007.5 - 0.0 - - - - - - -
20/11:30am 16.3 WSW 11 13 1007.7 - 0.0 - - - - - - -
20/11:00am 14.9 SW 13 15 1007.8 - 0.0 - - - - - - -
20/10:30am 13.7 W 11 13 1007.8 - 0.0 - - - - - - -
20/10:00am 13.3 W 9 12 1008.0 - 0.0 - - - - - - -
20/09:30am 13.4 W 9 12 1007.9 - 0.0 - - - - - - -
20/09:00am 12.4 W 8 10 1007.7 - 0.0 - - - - - - -
20/08:30am 11.8 W 7 9 1007.8 - 0.0 - - - - - - -
20/08:00am 11.6 W 7 10 1007.4 - 0.0 - - - - - - -
20/07:30am 11.2 WNW 7 10 1007.3 - 0.0 - - - - - - -
20/07:00am 10.8 WNW 8 11 1007.2 - 0.0 - - - - - - -
20/06:30am 10.8 WNW 8 10 1006.9 - 0.0 - - - - - - -
20/06:00am 10.8 WNW 7 9 1006.6 - 0.0 - - - - - - -
20/05:30am 10.7 WNW 7 9 1006.6 - 0.0 - - - - - - -
20/05:00am 10.6 WNW 7 9 1006.4 - 0.0 - - - - - - -
20/04:30am 10.2 WNW 6 7 1006.5 - 0.0 - - - - - - -

Other Formats:

Comma delimited format used in spreadsheet applications
http://www.bom.gov.au/fwo/IDT60701/IDT60701.94951.axf

JavaScript Object Notation format (JSON) in row-major order
http://www.bom.gov.au/fwo/IDT60701/IDT60701.94951.json